Time;durP1;ratioP1;P1;durP2;ratioP2;P2;SDS_P1;SDS_P2;PMS_P1;PMS_P2;Temp;Humidity;BMP_temperature;BMP_pressure;BME280_temperature;BME280_humidity;BME280_pressure;Samples;Min_cycle;Max_cycle;Signal;HPM_P1;HPM_P2
2022/10/29 00:01:20;;;;;;;;;;;;;9.20;98626.60;;;;108986;1268;41177;-55
2022/10/29 00:03:50;;;;;;;;;;;;;9.20;98623.40;;;;108964;1268;41130;-55
2022/10/29 00:06:20;;;;;;;;;;;;;9.20;98628.80;;;;108999;1268;41235;-55
2022/10/29 00:08:49;;;;;;;;;;;;;9.20;98622.60;;;;108972;1268;41139;-55
2022/10/29 00:11:20;;;;;;;;;;;;;9.20;98624.80;;;;109002;1268;41233;-56
2022/10/29 00:13:52;;;;;;;;;;;;;9.20;98627.20;;;;108757;1270;41691;-55
2022/10/29 00:16:23;;;;;;;;;;;;;9.16;98628.00;;;;109039;1266;41246;-56
2022/10/29 00:18:52;;;;;;;;;;;;;9.10;98625.20;;;;109028;1269;41149;-57
2022/10/29 00:21:23;;;;;;;;;;;;;9.10;98629.00;;;;109020;1268;41267;-56
2022/10/29 00:23:53;;;;;;;;;;;;;9.10;98628.00;;;;109043;1267;41236;-56
2022/10/29 00:26:21;;;;;;;;;;;;;9.10;98623.60;;;;109057;1268;41150;-56
2022/10/29 00:28:52;;;;;;;;;;;;;9.00;98622.20;;;;109064;1268;41467;-56
2022/10/29 00:31:23;;;;;;;;;;;;;9.00;98625.80;;;;109055;1268;41877;-56
2022/10/29 00:33:53;;;;;;;;;;;;;8.98;98628.20;;;;109054;1268;41149;-56
2022/10/29 00:36:24;;;;;;;;;;;;;8.90;98620.20;;;;109046;1268;41228;-56
2022/10/29 00:38:53;;;;;;;;;;;;;8.90;98626.20;;;;109005;1268;41490;-56
2022/10/29 00:41:27;;;;;;;;;;;;;8.90;98621.60;;;;109041;1268;42028;-57
2022/10/29 00:44:16;;;;;;;;;;;;;8.80;98619.00;;;;109038;1268;41632;-57
2022/10/29 00:46:52;;;;;;;;;;;;;8.80;98620.20;;;;108995;1268;41225;-57
2022/10/29 00:49:23;;;;;;;;;;;;;8.80;98623.20;;;;108950;1268;41616;-56
2022/10/29 00:51:53;;;;;;;;;;;;;8.80;98623.40;;;;108936;1268;41147;-56
2022/10/29 00:54:23;;;;;;;;;;;;;8.80;98625.80;;;;108829;1268;41228;-56
2022/10/29 00:56:55;;;;;;;;;;;;;8.74;98622.80;;;;109068;1265;41145;-56
2022/10/29 00:59:28;;;;;;;;;;;;;8.70;98619.20;;;;109094;1268;42418;-56
2022/10/29 01:01:57;;;;;;;;;;;;;8.70;98624.20;;;;109052;1266;42371;-56
2022/10/29 01:04:27;;;;;;;;;;;;;8.70;98616.60;;;;109011;1268;41811;-56
2022/10/29 01:06:56;;;;;;;;;;;;;8.70;98615.40;;;;109053;1268;41622;-57
2022/10/29 01:09:26;;;;;;;;;;;;;8.70;98605.20;;;;109039;1268;41139;-56
2022/10/29 01:12:04;;;;;;;;;;;;;8.66;98607.20;;;;109078;1268;42557;-56
2022/10/29 01:14:40;;;;;;;;;;;;;8.60;98605.60;;;;109063;1268;41134;-56
2022/10/29 01:17:15;;;;;;;;;;;;;8.60;98605.80;;;;109057;1268;41131;-56
2022/10/29 01:19:46;;;;;;;;;;;;;8.52;98602.00;;;;108967;1270;41167;-56
2022/10/29 01:22:17;;;;;;;;;;;;;8.50;98604.20;;;;109034;1268;42162;-56
2022/10/29 01:25:11;;;;;;;;;;;;;8.50;98601.80;;;;109071;1268;41204;-55
2022/10/29 01:27:48;;;;;;;;;;;;;8.46;98600.60;;;;109016;1268;41171;-56
2022/10/29 01:30:23;;;;;;;;;;;;;8.40;98597.40;;;;109053;1268;41224;-56
2022/10/29 01:33:02;;;;;;;;;;;;;8.40;98603.20;;;;109061;1268;41143;-56
2022/10/29 01:35:46;;;;;;;;;;;;;8.40;98599.00;;;;109090;1268;41164;-56
2022/10/29 01:38:36;;;;;;;;;;;;;8.30;98601.40;;;;109026;1264;41162;-56
2022/10/29 01:41:07;;;;;;;;;;;;;8.28;98601.40;;;;109012;1268;41143;-56
2022/10/29 01:43:47;;;;;;;;;;;;;8.20;98601.20;;;;108904;1271;42186;-56
2022/10/29 01:46:17;;;;;;;;;;;;;8.20;98595.80;;;;109026;1268;41612;-56
2022/10/29 01:48:48;;;;;;;;;;;;;8.10;98591.60;;;;108980;1268;42390;-58
2022/10/29 01:51:19;;;;;;;;;;;;;8.10;98587.40;;;;109051;1268;41165;-55
2022/10/29 01:53:49;;;;;;;;;;;;;8.08;98579.20;;;;108835;1266;41237;-55
2022/10/29 01:56:19;;;;;;;;;;;;;8.10;98579.80;;;;108977;1268;41620;-55
2022/10/29 01:58:49;;;;;;;;;;;;;8.04;98580.40;;;;108974;1268;41164;-55
2022/10/29 02:01:38;;;;;;;;;;;;;8.10;98577.40;;;;109028;1266;41170;-56
2022/10/29 02:04:12;;;;;;;;;;;;;8.00;98568.40;;;;109072;1268;41703;-56
2022/10/29 02:06:51;;;;;;;;;;;;;8.00;98573.40;;;;109063;1268;41180;-56
2022/10/29 02:09:39;;;;;;;;;;;;;8.00;98572.20;;;;109010;1268;41631;-57
2022/10/29 02:12:19;;;;;;;;;;;;;7.90;98571.40;;;;109036;1268;41646;-56
2022/10/29 02:14:51;;;;;;;;;;;;;7.80;98570.40;;;;108977;1268;41239;-56
2022/10/29 02:17:20;;;;;;;;;;;;;7.80;98568.20;;;;108994;1267;41710;-56
2022/10/29 02:19:49;;;;;;;;;;;;;7.70;98567.00;;;;109012;1266;41621;-56
2022/10/29 02:22:20;;;;;;;;;;;;;7.60;98575.40;;;;108993;1268;41145;-56
2022/10/29 02:24:49;;;;;;;;;;;;;7.60;98575.80;;;;108987;1267;41148;-56
2022/10/29 02:27:18;;;;;;;;;;;;;7.60;98567.40;;;;109004;1268;41533;-56
2022/10/29 02:29:47;;;;;;;;;;;;;7.60;98565.00;;;;109018;1268;41954;-56
2022/10/29 02:32:16;;;;;;;;;;;;;7.60;98570.20;;;;109023;1268;42542;-56
2022/10/29 02:34:48;;;;;;;;;;;;;7.60;98572.80;;;;109053;1268;41181;-56
2022/10/29 02:37:20;;;;;;;;;;;;;7.60;98567.60;;;;109066;1268;41857;-55
2022/10/29 02:39:50;;;;;;;;;;;;;7.60;98567.40;;;;109055;1268;41138;-56
2022/10/29 02:42:21;;;;;;;;;;;;;7.60;98566.00;;;;109030;1268;41715;-56
2022/10/29 02:44:52;;;;;;;;;;;;;7.60;98568.00;;;;109087;1268;41202;-56
2022/10/29 02:47:23;;;;;;;;;;;;;7.66;98569.40;;;;109060;1268;41133;-55
2022/10/29 02:49:52;;;;;;;;;;;;;7.70;98569.00;;;;109025;1268;41159;-54
2022/10/29 02:52:23;;;;;;;;;;;;;7.70;98572.00;;;;109037;1268;41133;-56
2022/10/29 02:54:53;;;;;;;;;;;;;7.70;98579.60;;;;109055;1268;41163;-56
2022/10/29 02:57:23;;;;;;;;;;;;;7.70;98582.00;;;;109035;1268;41131;-55
2022/10/29 02:59:54;;;;;;;;;;;;;7.60;98583.00;;;;109029;1268;41153;-57
2022/10/29 03:02:23;;;;;;;;;;;;;7.56;98583.20;;;;109075;1268;41833;-57
2022/10/29 03:04:53;;;;;;;;;;;;;7.50;98576.40;;;;109049;1268;41139;-55
2022/10/29 03:07:23;;;;;;;;;;;;;7.50;98576.00;;;;108979;1268;41400;-56
2022/10/29 03:09:52;;;;;;;;;;;;;7.50;98570.80;;;;109052;1268;41142;-57
2022/10/29 03:12:21;;;;;;;;;;;;;7.50;98571.40;;;;109069;1268;41163;-56
2022/10/29 03:14:52;;;;;;;;;;;;;7.50;98572.20;;;;109027;1268;41312;-56
2022/10/29 03:17:21;;;;;;;;;;;;;7.42;98569.40;;;;109075;1268;41699;-56
2022/10/29 03:19:50;;;;;;;;;;;;;7.40;98572.40;;;;109046;1268;41148;-55
2022/10/29 03:22:20;;;;;;;;;;;;;7.40;98569.20;;;;109012;1268;41662;-56
2022/10/29 03:24:49;;;;;;;;;;;;;7.40;98567.80;;;;108958;1271;41887;-55
2022/10/29 03:27:18;;;;;;;;;;;;;7.40;98569.80;;;;108964;1268;41169;-55
2022/10/29 03:29:48;;;;;;;;;;;;;7.40;98568.40;;;;108918;1269;41184;-56
2022/10/29 03:32:18;;;;;;;;;;;;;7.40;98564.80;;;;109011;1268;41203;-56
2022/10/29 03:34:48;;;;;;;;;;;;;7.40;98558.80;;;;109049;1268;41145;-56
2022/10/29 03:37:19;;;;;;;;;;;;;7.40;98565.20;;;;109038;1268;41149;-56
2022/10/29 03:39:49;;;;;;;;;;;;;7.40;98564.80;;;;109020;1268;41153;-56
2022/10/29 03:42:17;;;;;;;;;;;;;7.40;98559.40;;;;109020;1269;41721;-56
2022/10/29 03:44:47;;;;;;;;;;;;;7.40;98560.40;;;;109087;1271;41346;-56
2022/10/29 03:47:16;;;;;;;;;;;;;7.40;98562.20;;;;109043;1268;41891;-56
2022/10/29 03:49:44;;;;;;;;;;;;;7.40;98562.00;;;;109056;1270;41476;-56
2022/10/29 03:52:13;;;;;;;;;;;;;7.34;98563.60;;;;109046;1268;41940;-56
2022/10/29 03:54:42;;;;;;;;;;;;;7.34;98561.60;;;;109039;1268;41635;-56
2022/10/29 03:57:11;;;;;;;;;;;;;7.40;98557.40;;;;109080;1271;41152;-56
2022/10/29 03:59:40;;;;;;;;;;;;;7.40;98561.20;;;;109041;1269;41162;-56
2022/10/29 04:02:11;;;;;;;;;;;;;7.40;98561.40;;;;109037;1268;41131;-56
2022/10/29 04:04:40;;;;;;;;;;;;;7.40;98558.20;;;;109039;1268;41171;-56
2022/10/29 04:07:10;;;;;;;;;;;;;7.34;98557.40;;;;109057;1268;41236;-56
2022/10/29 04:09:39;;;;;;;;;;;;;7.32;98561.80;;;;109071;1271;41289;-57
2022/10/29 04:12:08;;;;;;;;;;;;;7.30;98565.00;;;;109016;1269;41148;-56
2022/10/29 04:14:37;;;;;;;;;;;;;7.30;98565.40;;;;109010;1268;41142;-56
2022/10/29 04:17:11;;;;;;;;;;;;;7.20;98566.40;;;;109030;1271;41894;-57
2022/10/29 04:19:40;;;;;;;;;;;;;7.20;98568.20;;;;108999;1269;41149;-56
2022/10/29 04:22:09;;;;;;;;;;;;;7.10;98566.60;;;;109013;1268;41232;-56
2022/10/29 04:24:58;;;;;;;;;;;;;7.10;98565.80;;;;108942;1271;41609;-56
2022/10/29 04:27:47;;;;;;;;;;;;;7.10;98568.20;;;;108932;1268;42089;-56
2022/10/29 04:30:37;;;;;;;;;;;;;7.10;98570.40;;;;109014;1270;41232;-56
2022/10/29 04:33:06;;;;;;;;;;;;;7.10;98570.80;;;;109026;1268;41626;-56
2022/10/29 04:35:34;;;;;;;;;;;;;7.10;98564.60;;;;109014;1268;41886;-57
2022/10/29 04:38:08;;;;;;;;;;;;;7.10;98564.80;;;;108882;1270;41949;-56
2022/10/29 04:40:36;;;;;;;;;;;;;7.12;98560.40;;;;109015;1271;41600;-55
2022/10/29 04:43:05;;;;;;;;;;;;;7.20;98560.00;;;;109013;1268;42403;-56
2022/10/29 04:45:35;;;;;;;;;;;;;7.20;98566.60;;;;108942;1271;41148;-55
2022/10/29 04:48:05;;;;;;;;;;;;;7.20;98569.80;;;;108985;1271;42441;-56
2022/10/29 04:50:35;;;;;;;;;;;;;7.20;98569.00;;;;109004;1268;41694;-55
2022/10/29 04:53:05;;;;;;;;;;;;;7.18;98564.60;;;;108983;1271;41923;-55
2022/10/29 04:55:35;;;;;;;;;;;;;7.14;98560.00;;;;109001;1269;41217;-55
2022/10/29 04:58:04;;;;;;;;;;;;;7.10;98561.00;;;;108945;1271;41599;-55
2022/10/29 05:00:33;;;;;;;;;;;;;7.20;98569.80;;;;108944;1268;41477;-56
2022/10/29 05:03:02;;;;;;;;;;;;;7.20;98573.80;;;;108974;1271;42149;-56
2022/10/29 05:05:31;;;;;;;;;;;;;7.20;98577.60;;;;108968;1268;41149;-55
2022/10/29 05:08:00;;;;;;;;;;;;;7.20;98583.40;;;;108978;1271;41533;-56
2022/10/29 05:10:30;;;;;;;;;;;;;7.22;98592.80;;;;109074;1268;41316;-55
2022/10/29 05:12:59;;;;;;;;;;;;;7.30;98590.40;;;;108996;1271;41421;-56
2022/10/29 05:15:28;;;;;;;;;;;;;7.30;98588.20;;;;109045;1268;41140;-55
2022/10/29 05:17:56;;;;;;;;;;;;;7.30;98590.20;;;;109030;1268;41779;-56
2022/10/29 05:20:25;;;;;;;;;;;;;7.24;98597.60;;;;109043;1268;41143;-56
2022/10/29 05:23:00;;;;;;;;;;;;;7.20;98596.20;;;;109090;1268;41231;-56
2022/10/29 05:25:30;;;;;;;;;;;;;7.20;98597.20;;;;109070;1268;41486;-55
2022/10/29 05:28:03;;;;;;;;;;;;;7.18;98601.60;;;;109014;1271;41410;-56
2022/10/29 05:30:32;;;;;;;;;;;;;7.18;98606.60;;;;109001;1268;41168;-56
2022/10/29 05:33:00;;;;;;;;;;;;;7.20;98609.00;;;;109043;1268;41148;-57
2022/10/29 05:35:29;;;;;;;;;;;;;7.20;98610.60;;;;109063;1268;41641;-56
2022/10/29 05:37:59;;;;;;;;;;;;;7.20;98607.80;;;;109046;1268;41618;-56
2022/10/29 05:40:27;;;;;;;;;;;;;7.28;98608.80;;;;109044;1268;41165;-57
2022/10/29 05:42:56;;;;;;;;;;;;;7.30;98608.00;;;;108992;1268;41159;-56
2022/10/29 05:45:24;;;;;;;;;;;;;7.30;98606.40;;;;109034;1268;42112;-56
2022/10/29 05:47:56;;;;;;;;;;;;;7.30;98605.20;;;;109001;1268;41148;-57
2022/10/29 05:50:25;;;;;;;;;;;;;7.30;98611.20;;;;108995;1267;41178;-57
2022/10/29 05:52:54;;;;;;;;;;;;;7.30;98613.40;;;;109007;1268;41264;-56
2022/10/29 05:55:23;;;;;;;;;;;;;7.30;98614.40;;;;108914;1268;41134;-56
2022/10/29 05:57:55;;;;;;;;;;;;;7.30;98612.60;;;;108916;1270;42531;-56
2022/10/29 06:00:25;;;;;;;;;;;;;7.30;98602.40;;;;108946;1268;41543;-56
2022/10/29 06:02:54;;;;;;;;;;;;;7.40;98601.40;;;;109050;1268;41217;-56
2022/10/29 06:05:23;;;;;;;;;;;;;7.40;98603.20;;;;109053;1268;41161;-56
2022/10/29 06:07:57;;;;;;;;;;;;;7.40;98612.60;;;;109019;1268;42114;-56
2022/10/29 06:10:27;;;;;;;;;;;;;7.50;98612.20;;;;109028;1270;41462;-56
2022/10/29 06:12:55;;;;;;;;;;;;;7.54;98612.60;;;;109078;1272;41821;-56
2022/10/29 06:15:24;;;;;;;;;;;;;7.60;98602.60;;;;109015;1268;41491;-56
2022/10/29 06:17:52;;;;;;;;;;;;;7.70;98592.80;;;;108977;1268;41602;-56
2022/10/29 06:20:21;;;;;;;;;;;;;7.78;98598.80;;;;108994;1270;41616;-56
2022/10/29 06:22:54;;;;;;;;;;;;;7.80;98598.60;;;;109020;1272;41243;-56
2022/10/29 06:25:24;;;;;;;;;;;;;7.90;98601.20;;;;109066;1272;41145;-55
2022/10/29 06:27:59;;;;;;;;;;;;;8.00;98607.00;;;;109002;1272;42295;-55
2022/10/29 06:30:28;;;;;;;;;;;;;8.00;98604.80;;;;109007;1270;41233;-56
2022/10/29 06:32:57;;;;;;;;;;;;;8.10;98603.20;;;;108959;1272;42575;-55
2022/10/29 06:35:25;;;;;;;;;;;;;8.10;98606.00;;;;109005;1272;42716;-55
2022/10/29 06:37:54;;;;;;;;;;;;;8.10;98608.80;;;;109017;1268;41170;-56
2022/10/29 06:40:23;;;;;;;;;;;;;8.20;98610.20;;;;109067;1270;41236;-56
2022/10/29 06:43:01;;;;;;;;;;;;;8.20;98620.00;;;;109060;1272;41261;-57
2022/10/29 06:45:30;;;;;;;;;;;;;8.30;98614.00;;;;109013;1272;41143;-61
2022/10/29 06:47:58;;;;;;;;;;;;;8.40;98620.00;;;;109048;1271;41147;-55
2022/10/29 06:50:27;;;;;;;;;;;;;8.50;98622.60;;;;109039;1272;42410;-56
2022/10/29 06:53:03;;;;;;;;;;;;;8.60;98618.00;;;;109006;1271;41232;-56
2022/10/29 06:55:32;;;;;;;;;;;;;8.70;98619.00;;;;108966;1272;41233;-56
2022/10/29 06:58:09;;;;;;;;;;;;;8.80;98620.40;;;;108953;1270;42079;-56
2022/10/29 07:00:38;;;;;;;;;;;;;8.90;98619.60;;;;109093;1271;41687;-56
2022/10/29 07:03:08;;;;;;;;;;;;;9.00;98618.00;;;;109077;1272;41226;-56
2022/10/29 07:05:36;;;;;;;;;;;;;9.16;98612.60;;;;109061;1270;41500;-55
2022/10/29 07:08:05;;;;;;;;;;;;;9.22;98607.20;;;;109037;1271;41788;-56
2022/10/29 07:10:33;;;;;;;;;;;;;9.30;98609.40;;;;109054;1270;41140;-56
2022/10/29 07:13:02;;;;;;;;;;;;;9.40;98606.20;;;;109081;1269;42190;-56
2022/10/29 07:15:31;;;;;;;;;;;;;9.40;98604.00;;;;109078;1267;41191;-56
2022/10/29 07:17:59;;;;;;;;;;;;;9.50;98600.40;;;;108998;1272;41144;-56
2022/10/29 07:20:28;;;;;;;;;;;;;9.60;98602.20;;;;109039;1272;41803;-56
2022/10/29 07:22:57;;;;;;;;;;;;;9.88;98600.20;;;;109016;1269;41241;-56
2022/10/29 07:25:25;;;;;;;;;;;;;10.14;98596.60;;;;109047;1272;42215;-57
2022/10/29 07:27:53;;;;;;;;;;;;;10.40;98587.20;;;;108869;1272;238596;-55
2022/10/29 07:30:22;;;;;;;;;;;;;10.70;98590.60;;;;109092;1270;41319;-55
2022/10/29 07:32:51;;;;;;;;;;;;;10.74;98593.00;;;;109054;1268;41141;-55
2022/10/29 07:35:19;;;;;;;;;;;;;10.90;98596.20;;;;109044;1270;41602;-55
2022/10/29 07:37:47;;;;;;;;;;;;;10.98;98593.20;;;;109036;1269;41145;-56
2022/10/29 07:40:16;;;;;;;;;;;;;11.20;98593.40;;;;109052;1270;41129;-56
2022/10/29 07:42:45;;;;;;;;;;;;;11.50;98593.60;;;;109053;1272;41234;-56
2022/10/29 07:45:14;;;;;;;;;;;;;11.90;98588.60;;;;109026;1272;42561;-55
2022/10/29 07:47:42;;;;;;;;;;;;;12.20;98584.80;;;;109041;1270;41208;-55
2022/10/29 07:50:11;;;;;;;;;;;;;12.50;98588.80;;;;109051;1272;41472;-55
2022/10/29 07:52:40;;;;;;;;;;;;;12.70;98591.60;;;;109029;1272;41269;-56
2022/10/29 07:55:08;;;;;;;;;;;;;12.96;98589.80;;;;109065;1272;41609;-56
2022/10/29 07:57:37;;;;;;;;;;;;;13.08;98590.40;;;;109016;1272;41167;-55
2022/10/29 08:00:06;;;;;;;;;;;;;13.20;98591.80;;;;109021;1272;41137;-55
2022/10/29 08:02:39;;;;;;;;;;;;;13.40;98598.00;;;;109023;1271;41923;-56
2022/10/29 08:05:07;;;;;;;;;;;;;13.60;98603.00;;;;109098;1272;41161;-55
2022/10/29 08:07:36;;;;;;;;;;;;;13.92;98594.60;;;;109067;1272;41220;-56
2022/10/29 08:10:05;;;;;;;;;;;;;14.30;98594.00;;;;109044;1269;41238;-56
2022/10/29 08:12:33;;;;;;;;;;;;;14.70;98590.60;;;;109072;1272;41155;-55
2022/10/29 08:15:02;;;;;;;;;;;;;14.86;98587.40;;;;108998;1271;41302;-56
2022/10/29 08:17:31;;;;;;;;;;;;;15.14;98590.20;;;;109042;1272;41460;-57
2022/10/29 08:19:59;;;;;;;;;;;;;15.50;98585.80;;;;109056;1268;41193;-57
2022/10/29 08:22:29;;;;;;;;;;;;;15.80;98588.00;;;;109094;1272;42491;-57
2022/10/29 08:24:57;;;;;;;;;;;;;16.10;98585.80;;;;108997;1273;41621;-56
2022/10/29 08:27:26;;;;;;;;;;;;;16.46;98586.80;;;;108981;1272;41145;-56
2022/10/29 08:29:54;;;;;;;;;;;;;16.70;98577.60;;;;109029;1270;41161;-56
2022/10/29 08:32:22;;;;;;;;;;;;;16.92;98573.40;;;;108991;1272;41258;-56
2022/10/29 08:34:51;;;;;;;;;;;;;17.20;98569.40;;;;108997;1272;41133;-56
2022/10/29 08:37:19;;;;;;;;;;;;;17.66;98568.00;;;;109045;1271;41211;-56
2022/10/29 08:39:47;;;;;;;;;;;;;18.12;98567.00;;;;108992;1270;41148;-56
2022/10/29 08:42:34;;;;;;;;;;;;;18.52;98564.00;;;;109010;1269;41162;-56
2022/10/29 08:45:05;;;;;;;;;;;;;19.00;98561.00;;;;109077;1272;41299;-56
2022/10/29 08:47:40;;;;;;;;;;;;;19.32;98559.40;;;;109007;1267;42475;-56
2022/10/29 08:50:15;;;;;;;;;;;;;19.80;98553.60;;;;109019;1272;41588;-56
2022/10/29 08:52:43;;;;;;;;;;;;;19.96;98552.60;;;;109011;1272;41937;-56
2022/10/29 08:55:29;;;;;;;;;;;;;19.68;98550.20;;;;108959;1268;41158;-57
2022/10/29 08:57:58;;;;;;;;;;;;;20.06;98546.80;;;;109044;1272;41254;-57
2022/10/29 09:00:31;;;;;;;;;;;;;20.48;98543.40;;;;109078;1270;41817;-56
2022/10/29 09:02:59;;;;;;;;;;;;;20.90;98541.00;;;;109022;1272;41693;-56
2022/10/29 09:05:46;;;;;;;;;;;;;21.30;98538.40;;;;109033;1271;41230;-55
2022/10/29 09:08:37;;;;;;;;;;;;;21.58;98525.60;;;;108961;1272;41141;-56
2022/10/29 09:11:10;;;;;;;;;;;;;22.10;98525.20;;;;108844;1274;41237;-56
2022/10/29 09:14:02;;;;;;;;;;;;;22.38;98521.80;;;;109060;1272;41478;-56
2022/10/29 09:16:49;;;;;;;;;;;;;22.70;98528.00;;;;108953;1272;41303;-57
2022/10/29 09:19:20;;;;;;;;;;;;;23.12;98518.20;;;;108997;1270;41220;-56
2022/10/29 09:22:07;;;;;;;;;;;;;23.50;98520.20;;;;108926;1271;42235;-57
2022/10/29 09:24:35;;;;;;;;;;;;;24.04;98518.40;;;;109028;1269;42302;-57
2022/10/29 09:27:14;;;;;;;;;;;;;24.44;98510.60;;;;108985;1270;42551;-57
2022/10/29 09:30:16;;;;;;;;;;;;;24.62;98508.40;;;;109082;1269;41717;-56
2022/10/29 09:32:44;;;;;;;;;;;;;24.70;98508.80;;;;108978;1269;41160;-56
2022/10/29 09:35:14;;;;;;;;;;;;;24.80;98502.40;;;;108915;1269;41148;-56
2022/10/29 09:37:42;;;;;;;;;;;;;24.72;98501.20;;;;108919;1267;41978;-56
2022/10/29 09:40:29;;;;;;;;;;;;;25.04;98498.00;;;;108880;1269;41154;-56
2022/10/29 09:42:58;;;;;;;;;;;;;25.46;98495.60;;;;108961;1269;41660;-56
2022/10/29 09:45:30;;;;;;;;;;;;;25.90;98493.40;;;;108982;1269;41585;-57
2022/10/29 09:48:17;;;;;;;;;;;;;25.70;98488.80;;;;108973;1269;41338;-56
2022/10/29 09:50:49;;;;;;;;;;;;;25.56;98481.80;;;;109058;1269;41177;-56
2022/10/29 09:53:17;;;;;;;;;;;;;25.38;98481.00;;;;109036;1268;41332;-56
2022/10/29 09:55:52;;;;;;;;;;;;;25.50;98479.20;;;;109026;1268;41386;-57
2022/10/29 09:58:22;;;;;;;;;;;;;25.70;98486.40;;;;109022;1268;41148;-57
2022/10/29 10:00:51;;;;;;;;;;;;;26.08;98478.00;;;;108990;1269;42185;-56
2022/10/29 10:03:24;;;;;;;;;;;;;26.00;98471.20;;;;108970;1265;42306;-56
2022/10/29 10:05:55;;;;;;;;;;;;;26.10;98472.00;;;;108958;1269;42393;-57
2022/10/29 10:08:23;;;;;;;;;;;;;26.20;98463.80;;;;108896;1269;42113;-57
2022/10/29 10:10:56;;;;;;;;;;;;;26.22;98463.20;;;;109006;1262;41273;-57
2022/10/29 10:13:26;;;;;;;;;;;;;26.30;98461.60;;;;108854;1268;42631;-56
2022/10/29 10:15:56;;;;;;;;;;;;;26.00;98452.80;;;;108573;1271;41183;-57
2022/10/29 10:18:24;;;;;;;;;;;;;26.24;98451.20;;;;108858;1269;41152;-56
2022/10/29 10:21:03;;;;;;;;;;;;;26.42;98446.20;;;;109031;1269;41202;-56
2022/10/29 10:23:40;;;;;;;;;;;;;27.06;98441.80;;;;108986;1269;41153;-57
2022/10/29 10:26:29;;;;;;;;;;;;;26.80;98438.60;;;;108934;1269;42148;-56
2022/10/29 10:29:13;;;;;;;;;;;;;27.08;98443.80;;;;109025;1268;41623;-57
2022/10/29 10:31:42;;;;;;;;;;;;;27.44;98438.80;;;;108965;1269;42028;-57
2022/10/29 10:34:29;;;;;;;;;;;;;28.14;98434.80;;;;109149;1269;41643;-57
2022/10/29 10:37:17;;;;;;;;;;;;;28.76;98433.40;;;;109023;1268;41137;-57
2022/10/29 10:39:54;;;;;;;;;;;;;29.00;98427.80;;;;109058;1269;41963;-56
2022/10/29 10:42:31;;;;;;;;;;;;;29.42;98425.60;;;;109025;1268;41145;-57
2022/10/29 10:45:00;;;;;;;;;;;;;29.58;98414.40;;;;109032;1269;41922;-57
2022/10/29 10:47:30;;;;;;;;;;;;;29.88;98415.60;;;;109027;1268;41696;-57
2022/10/29 10:50:17;;;;;;;;;;;;;29.94;98417.00;;;;108998;1268;41171;-57
2022/10/29 10:52:45;;;;;;;;;;;;;30.22;98418.00;;;;109088;1269;41599;-58
2022/10/29 10:55:26;;;;;;;;;;;;;30.62;98418.80;;;;109147;1260;41157;-57
2022/10/29 10:57:57;;;;;;;;;;;;;30.92;98417.80;;;;108919;1269;41295;-58
2022/10/29 11:00:26;;;;;;;;;;;;;31.54;98410.60;;;;108966;1269;41238;-57
2022/10/29 11:02:55;;;;;;;;;;;;;31.96;98410.40;;;;108887;1269;41221;-57
2022/10/29 11:05:33;;;;;;;;;;;;;32.82;98407.80;;;;109040;1268;41159;-58
2022/10/29 11:08:20;;;;;;;;;;;;;33.46;98407.80;;;;109018;1264;41246;-54
2022/10/29 11:10:51;;;;;;;;;;;;;33.70;98403.40;;;;109024;1268;41221;-57
2022/10/29 11:13:21;;;;;;;;;;;;;33.72;98404.00;;;;109025;1269;41545;-57
2022/10/29 11:16:08;;;;;;;;;;;;;33.20;98401.00;;;;108964;1265;41138;-57
2022/10/29 11:18:36;;;;;;;;;;;;;32.60;98399.60;;;;108961;1269;41292;-57
2022/10/29 11:21:07;;;;;;;;;;;;;32.70;98402.40;;;;108953;1271;41242;-58
2022/10/29 11:23:41;;;;;;;;;;;;;33.10;98399.80;;;;108944;1268;41150;-56
2022/10/29 11:26:17;;;;;;;;;;;;;33.02;98389.80;;;;109047;1261;41886;-56
2022/10/29 11:28:46;;;;;;;;;;;;;32.86;98386.80;;;;109060;1257;41145;-57
2022/10/29 11:31:16;;;;;;;;;;;;;32.70;98385.60;;;;108987;1269;41149;-57
2022/10/29 11:33:57;;;;;;;;;;;;;33.10;98387.40;;;;109006;1269;41615;-57
2022/10/29 11:36:26;;;;;;;;;;;;;33.20;98378.40;;;;109105;1256;41231;-57
2022/10/29 11:39:15;;;;;;;;;;;;;33.00;98379.60;;;;109004;1269;41621;-57
2022/10/29 11:41:56;;;;;;;;;;;;;32.32;98384.20;;;;109079;1268;41265;-57
2022/10/29 11:44:26;;;;;;;;;;;;;32.20;98386.60;;;;109074;1269;41783;-57
2022/10/29 11:47:06;;;;;;;;;;;;;31.88;98378.60;;;;108997;1269;41668;-57
2022/10/29 11:49:54;;;;;;;;;;;;;31.98;98370.40;;;;109035;1268;41135;-57
2022/10/29 11:52:31;;;;;;;;;;;;;32.20;98365.00;;;;108935;1269;41241;-56
2022/10/29 11:55:16;;;;;;;;;;;;;32.56;98355.80;;;;109051;1269;40770;-56
2022/10/29 11:57:48;;;;;;;;;;;;;31.98;98355.40;;;;108956;1263;41365;-56
2022/10/29 12:00:17;;;;;;;;;;;;;31.62;98359.20;;;;108948;1269;41588;-56
2022/10/29 12:02:52;;;;;;;;;;;;;31.28;98356.20;;;;109027;1268;41703;-57
2022/10/29 12:05:21;;;;;;;;;;;;;31.46;98352.80;;;;109050;1268;41624;-56
2022/10/29 12:07:58;;;;;;;;;;;;;31.20;98355.80;;;;109157;1268;42136;-57
2022/10/29 12:10:32;;;;;;;;;;;;;30.86;98356.20;;;;109002;1268;41172;-57
2022/10/29 12:13:26;;;;;;;;;;;;;30.40;98355.40;;;;108985;1269;41265;-57
2022/10/29 12:16:10;;;;;;;;;;;;;30.20;98352.40;;;;108768;1269;41627;-57
2022/10/29 12:18:38;;;;;;;;;;;;;29.80;98361.40;;;;109034;1269;41236;-57
2022/10/29 12:21:08;;;;;;;;;;;;;30.00;98360.20;;;;108949;1269;41772;-56
2022/10/29 12:23:43;;;;;;;;;;;;;29.90;98357.40;;;;109003;1269;41164;-57
2022/10/29 12:26:11;;;;;;;;;;;;;30.20;98356.60;;;;108961;1269;41603;-57
2022/10/29 12:28:44;;;;;;;;;;;;;30.74;98352.80;;;;108989;1268;41147;-57
2022/10/29 12:31:15;;;;;;;;;;;;;31.18;98343.80;;;;108999;1269;42396;-56
2022/10/29 12:34:04;;;;;;;;;;;;;30.74;98346.00;;;;108986;1255;41794;-57
2022/10/29 12:36:32;;;;;;;;;;;;;31.12;98349.20;;;;108996;1269;42120;-56
2022/10/29 12:39:00;;;;;;;;;;;;;31.48;98346.60;;;;108974;1269;42103;-57
2022/10/29 12:41:30;;;;;;;;;;;;;31.60;98340.40;;;;108729;1269;41720;-57
2022/10/29 12:44:25;;;;;;;;;;;;;31.94;98343.80;;;;109029;1268;41186;-57
2022/10/29 12:47:09;;;;;;;;;;;;;32.48;98338.80;;;;109030;1268;41686;-57
2022/10/29 12:49:48;;;;;;;;;;;;;32.66;98344.60;;;;109073;1268;41133;-57
2022/10/29 12:52:31;;;;;;;;;;;;;32.78;98343.80;;;;109003;1268;41858;-57
2022/10/29 12:55:00;;;;;;;;;;;;;33.12;98345.40;;;;109118;1268;41156;-57
2022/10/29 12:57:29;;;;;;;;;;;;;33.50;98334.40;;;;108948;1268;41246;-58
2022/10/29 13:00:16;;;;;;;;;;;;;33.70;98323.20;;;;109082;1265;42048;-57
2022/10/29 13:02:44;;;;;;;;;;;;;33.62;98320.80;;;;108988;1268;41532;-56
2022/10/29 13:05:15;;;;;;;;;;;;;33.80;98320.60;;;;108983;1268;41510;-57
2022/10/29 13:07:46;;;;;;;;;;;;;34.28;98317.20;;;;108947;1269;41189;-57
2022/10/29 13:10:25;;;;;;;;;;;;;34.70;98321.60;;;;108906;1268;41912;-57
2022/10/29 13:13:01;;;;;;;;;;;;;35.10;98315.00;;;;109055;1268;42213;-57
2022/10/29 13:15:30;;;;;;;;;;;;;35.30;98311.80;;;;109137;1266;41993;-56
2022/10/29 13:18:05;;;;;;;;;;;;;35.40;98309.40;;;;109095;1268;41144;-58
2022/10/29 13:20:36;;;;;;;;;;;;;35.12;98314.20;;;;109145;1268;42766;-57
2022/10/29 13:23:37;;;;;;;;;;;;;34.48;98312.80;;;;109067;1268;41636;-57
2022/10/29 13:26:06;;;;;;;;;;;;;33.74;98313.80;;;;108772;1268;41181;-56
2022/10/29 13:28:34;;;;;;;;;;;;;33.46;98320.20;;;;109060;1268;41313;-56
2022/10/29 13:31:02;;;;;;;;;;;;;31.40;98314.20;;;;109055;1260;41606;-57
2022/10/29 13:33:30;;;;;;;;;;;;;30.40;98320.80;;;;109054;1268;41237;-57
2022/10/29 13:36:02;;;;;;;;;;;;;29.48;98322.20;;;;109095;1256;41890;-57
2022/10/29 13:38:49;;;;;;;;;;;;;29.00;98318.00;;;;109010;1260;41156;-57
2022/10/29 13:41:41;;;;;;;;;;;;;29.10;98314.40;;;;109056;1268;41963;-57
2022/10/29 13:44:17;;;;;;;;;;;;;29.76;98312.80;;;;109050;1267;41180;-57
2022/10/29 13:46:48;;;;;;;;;;;;;30.30;98309.40;;;;109073;1268;41605;-57
2022/10/29 13:49:35;;;;;;;;;;;;;30.10;98307.80;;;;109041;1268;43310;-57
2022/10/29 13:52:05;;;;;;;;;;;;;30.00;98304.60;;;;109092;1268;41935;-57
2022/10/29 13:54:33;;;;;;;;;;;;;29.70;98302.20;;;;109078;1268;40857;-57
2022/10/29 13:57:03;;;;;;;;;;;;;29.28;98301.80;;;;109062;1268;41224;-57
2022/10/29 13:59:32;;;;;;;;;;;;;29.10;98294.40;;;;109003;1268;41237;-57
2022/10/29 14:02:03;;;;;;;;;;;;;29.10;98298.60;;;;109006;1268;41230;-57
2022/10/29 14:04:36;;;;;;;;;;;;;28.98;98292.40;;;;109099;1268;41152;-57